Time;durP1;ratioP1;P1;durP2;ratioP2;P2;SDS_P1;SDS_P2;PMS_P1;PMS_P2;Temp;Humidity;BMP_temperature;BMP_pressure;BME280_temperature;BME280_humidity;BME280_pressure;Samples;Min_cycle;Max_cycle;Signal;HPM_P1;HPM_P2
2022/07/22 00:01:27;;;;;;;;;;;;;;;;;;5137854;27;19954;-87
2022/07/22 00:03:52;;;;;;;;;;;;;;;;;;5147479;27;19919;-86
2022/07/22 00:06:17;;;;;;;;;;;;;;;;;;5140906;27;19915;-86
2022/07/22 00:08:42;;;;;;;;;;;;;;;;;;5140285;27;19916;-86
2022/07/22 00:11:08;;;;;;;;;;;;;;;;;;5138861;27;19974;-86
2022/07/22 00:13:33;;;;;;;;;;;;;;;;;;5141320;27;19916;-87
2022/07/22 00:15:58;;;;;;;;;;;;;;;;;;5140229;27;19922;-86
2022/07/22 00:18:24;;;;;;;;;;;;;;;;;;5120436;27;19979;-86
2022/07/22 00:20:49;;;;;;;;;;;;;;;;;;5138560;27;19915;-86
2022/07/22 00:23:14;;;;;;;;;;;;;;;;;;5143347;27;19924;-85
2022/07/22 00:25:40;;;;;;;;;;;;;;;;;;5147279;27;20325;-85
2022/07/22 00:28:05;;;;;;;;;;;;;;;;;;5136740;27;19923;-85
2022/07/22 00:30:31;;;;;;;;;;;;;;;;;;5138227;27;19972;-85
2022/07/22 00:32:59;;;;;;;;;;;;;;;;;;5138931;27;19915;-86
2022/07/22 00:35:26;;;;;;;;;;;;;;;;;;5138148;27;19977;-84
2022/07/22 00:37:51;;;;;;;;;;;;;;;;;;5136068;27;20306;-86
2022/07/22 00:40:16;;;;;;;;;;;;;;;;;;5137125;27;19926;-85
2022/07/22 00:42:41;;;;;;;;;;;;;;;;;;5138300;27;19919;-84
2022/07/22 00:45:07;;;;;;;;;;;;;;;;;;5144301;27;19920;-83
2022/07/22 00:47:32;;;;;;;;;;;;;;;;;;5142663;27;19916;-84
2022/07/22 00:49:58;;;;;;;;;;;;;;;;;;5119527;27;19970;-84
2022/07/22 00:52:23;;;;;;;;;;;;;;;;;;5137789;27;19923;-86
2022/07/22 00:54:49;;;;;;;;;;;;;;;;;;5120398;27;19958;-86
2022/07/22 00:57:15;;;;;;;;;;;;;;;;;;5136438;27;19915;-86
2022/07/22 00:59:40;;;;;;;;;;;;;;;;;;5137967;27;20364;-87
2022/07/22 01:02:05;;;;;;;;;;;;;;;;;;5136309;27;20371;-86
2022/07/22 01:04:31;;;;;;;;;;;;;;;;;;5140140;27;20010;-87
2022/07/22 01:06:56;;;;;;;;;;;;;;;;;;5147393;27;19911;-85
2022/07/22 01:09:21;;;;;;;;;;;;;;;;;;5136527;27;19916;-85
2022/07/22 01:11:47;;;;;;;;;;;;;;;;;;5136431;27;19916;-86
2022/07/22 01:14:12;;;;;;;;;;;;;;;;;;5136362;27;20388;-85
2022/07/22 01:16:37;;;;;;;;;;;;;;;;;;5137527;27;20394;-86
2022/07/22 01:19:03;;;;;;;;;;;;;;;;;;5137830;27;20002;-85
2022/07/22 01:21:28;;;;;;;;;;;;;;;;;;5136980;27;20321;-85
2022/07/22 01:23:53;;;;;;;;;;;;;;;;;;5137460;27;19964;-83
2022/07/22 01:26:19;;;;;;;;;;;;;;;;;;5147417;27;19937;-82
2022/07/22 01:29:03;;;;;;;;;;;;;;;;;;5137084;27;19915;-84
2022/07/22 01:31:28;;;;;;;;;;;;;;;;;;5136696;27;20010;-85
2022/07/22 01:33:54;;;;;;;;;;;;;;;;;;5137117;27;19951;-85
2022/07/22 01:36:19;;;;;;;;;;;;;;;;;;5137575;27;20365;-84
2022/07/22 01:38:45;;;;;;;;;;;;;;;;;;5136872;27;20347;-86
2022/07/22 01:41:10;;;;;;;;;;;;;;;;;;5137746;27;19972;-85
2022/07/22 01:43:36;;;;;;;;;;;;;;;;;;5135603;27;20234;-86
2022/07/22 01:46:01;;;;;;;;;;;;;;;;;;5137525;27;19916;-86
2022/07/22 01:48:27;;;;;;;;;;;;;;;;;;5129602;27;19919;-82
2022/07/22 01:50:52;;;;;;;;;;;;;;;;;;5137046;27;20360;-85
2022/07/22 01:53:18;;;;;;;;;;;;;;;;;;5136731;27;19919;-85
2022/07/22 01:55:43;;;;;;;;;;;;;;;;;;5136669;27;19915;-86
2022/07/22 01:58:08;;;;;;;;;;;;;;;;;;5136621;27;19915;-87
2022/07/22 02:00:34;;;;;;;;;;;;;;;;;;5137364;27;19915;-85
2022/07/22 02:02:59;;;;;;;;;;;;;;;;;;5135086;27;19927;-85
2022/07/22 02:05:25;;;;;;;;;;;;;;;;;;5135038;27;20309;-86
2022/07/22 02:07:50;;;;;;;;;;;;;;;;;;5146171;27;19966;-85
2022/07/22 02:10:15;;;;;;;;;;;;;;;;;;5142757;27;20238;-84
2022/07/22 02:12:41;;;;;;;;;;;;;;;;;;5117908;27;19923;-87
2022/07/22 02:15:06;;;;;;;;;;;;;;;;;;5135979;27;19919;-87
2022/07/22 02:17:35;;;;;;;;;;;;;;;;;;5134987;27;20289;-86
2022/07/22 02:20:00;;;;;;;;;;;;;;;;;;5139257;27;19919;-87
2022/07/22 02:22:25;;;;;;;;;;;;;;;;;;5136241;27;19972;-86
2022/07/22 02:24:53;;;;;;;;;;;;;;;;;;5136182;27;20360;-87
2022/07/22 02:27:18;;;;;;;;;;;;;;;;;;5136441;27;19972;-86
2022/07/22 02:29:44;;;;;;;;;;;;;;;;;;5152493;27;19919;-85
2022/07/22 02:32:09;;;;;;;;;;;;;;;;;;5137582;27;19915;-85
2022/07/22 02:34:34;;;;;;;;;;;;;;;;;;5135539;27;19951;-87
2022/07/22 02:37:00;;;;;;;;;;;;;;;;;;5135071;27;19963;-86
2022/07/22 02:39:25;;;;;;;;;;;;;;;;;;5135019;27;19946;-88
2022/07/22 02:41:50;;;;;;;;;;;;;;;;;;5136717;27;19911;-86
2022/07/22 02:44:15;;;;;;;;;;;;;;;;;;5135958;27;19915;-86
2022/07/22 02:46:41;;;;;;;;;;;;;;;;;;5134609;27;20298;-86
2022/07/22 02:49:06;;;;;;;;;;;;;;;;;;5139653;27;19934;-86
2022/07/22 02:51:31;;;;;;;;;;;;;;;;;;5145190;27;19926;-86
2022/07/22 02:53:57;;;;;;;;;;;;;;;;;;5135665;27;20328;-86
2022/07/22 02:56:22;;;;;;;;;;;;;;;;;;5117430;28;19916;-86
2022/07/22 02:58:51;;;;;;;;;;;;;;;;;;5135489;27;20420;-86
2022/07/22 03:01:17;;;;;;;;;;;;;;;;;;5138109;27;19973;-86
2022/07/22 03:03:42;;;;;;;;;;;;;;;;;;5147442;27;19919;-86
2022/07/22 03:06:07;;;;;;;;;;;;;;;;;;5142636;27;20067;-86
2022/07/22 03:08:33;;;;;;;;;;;;;;;;;;5142743;27;19915;-87
2022/07/22 03:10:58;;;;;;;;;;;;;;;;;;5157878;27;19907;-85
2022/07/22 03:13:23;;;;;;;;;;;;;;;;;;5144747;27;19915;-85
2022/07/22 03:15:49;;;;;;;;;;;;;;;;;;5142059;27;19918;-86
2022/07/22 03:18:14;;;;;;;;;;;;;;;;;;5141009;27;20014;-85
2022/07/22 03:20:39;;;;;;;;;;;;;;;;;;5141025;27;20017;-86
2022/07/22 03:23:04;;;;;;;;;;;;;;;;;;5142339;27;20016;-89
2022/07/22 03:25:32;;;;;;;;;;;;;;;;;;5142510;27;19926;-87
2022/07/22 03:27:57;;;;;;;;;;;;;;;;;;5142242;27;19911;-85
2022/07/22 03:30:22;;;;;;;;;;;;;;;;;;5142689;27;20364;-85
2022/07/22 03:32:48;;;;;;;;;;;;;;;;;;5138861;27;19923;-86
2022/07/22 03:35:13;;;;;;;;;;;;;;;;;;5142383;27;19921;-87
2022/07/22 03:37:39;;;;;;;;;;;;;;;;;;5142217;27;20367;-86
2022/07/22 03:40:04;;;;;;;;;;;;;;;;;;5141531;27;19923;-85
2022/07/22 03:42:30;;;;;;;;;;;;;;;;;;5145351;27;20014;-87
2022/07/22 03:44:55;;;;;;;;;;;;;;;;;;5147863;27;19919;-88
2022/07/22 03:47:20;;;;;;;;;;;;;;;;;;5142248;27;19915;-87
2022/07/22 03:49:46;;;;;;;;;;;;;;;;;;5141962;27;19972;-87
2022/07/22 03:52:12;;;;;;;;;;;;;;;;;;5137369;27;19982;-85
2022/07/22 03:54:38;;;;;;;;;;;;;;;;;;5146399;27;19982;-86
2022/07/22 03:57:03;;;;;;;;;;;;;;;;;;5142157;27;20385;-86
2022/07/22 03:59:28;;;;;;;;;;;;;;;;;;5141957;27;19912;-86
2022/07/22 04:01:54;;;;;;;;;;;;;;;;;;5141994;27;19922;-85
2022/07/22 04:04:19;;;;;;;;;;;;;;;;;;5142164;27;19915;-84
2022/07/22 04:06:45;;;;;;;;;;;;;;;;;;5141681;27;20355;-85
2022/07/22 04:09:10;;;;;;;;;;;;;;;;;;5141711;27;20193;-85
2022/07/22 04:11:36;;;;;;;;;;;;;;;;;;5141691;27;19915;-86
2022/07/22 04:14:01;;;;;;;;;;;;;;;;;;5153316;27;19976;-85
2022/07/22 04:16:27;;;;;;;;;;;;;;;;;;5139000;27;19916;-85
2022/07/22 04:18:52;;;;;;;;;;;;;;;;;;5138786;27;20010;-85
2022/07/22 04:21:17;;;;;;;;;;;;;;;;;;5138397;27;20305;-85
2022/07/22 04:23:43;;;;;;;;;;;;;;;;;;5138839;27;19916;-85
2022/07/22 04:26:08;;;;;;;;;;;;;;;;;;5137035;27;20265;-87
2022/07/22 04:28:34;;;;;;;;;;;;;;;;;;5140845;27;19915;-85
2022/07/22 04:31:00;;;;;;;;;;;;;;;;;;5138420;27;19959;-86
2022/07/22 04:33:25;;;;;;;;;;;;;;;;;;5146528;27;19938;-83
2022/07/22 04:35:51;;;;;;;;;;;;;;;;;;5148224;27;19927;-85
2022/07/22 04:38:17;;;;;;;;;;;;;;;;;;5138298;27;19915;-85
2022/07/22 04:40:42;;;;;;;;;;;;;;;;;;5136721;27;20010;-85
2022/07/22 04:43:08;;;;;;;;;;;;;;;;;;5137990;27;19955;-85
2022/07/22 04:45:33;;;;;;;;;;;;;;;;;;5138240;27;20451;-86
2022/07/22 04:47:58;;;;;;;;;;;;;;;;;;5138139;27;20010;-88
2022/07/22 04:50:24;;;;;;;;;;;;;;;;;;5141180;27;19971;-85
2022/07/22 04:52:49;;;;;;;;;;;;;;;;;;5136835;27;19916;-85
2022/07/22 04:55:14;;;;;;;;;;;;;;;;;;5153801;27;19915;-86
2022/07/22 04:57:40;;;;;;;;;;;;;;;;;;5138547;27;19923;-86
2022/07/22 05:00:05;;;;;;;;;;;;;;;;;;5137024;27;19915;-87
2022/07/22 05:02:31;;;;;;;;;;;;;;;;;;5137241;27;19916;-87
2022/07/22 05:04:58;;;;;;;;;;;;;;;;;;5137548;27;20020;-87
2022/07/22 05:07:24;;;;;;;;;;;;;;;;;;5135787;27;19923;-87
2022/07/22 05:09:49;;;;;;;;;;;;;;;;;;5139115;27;19915;-83
2022/07/22 05:12:15;;;;;;;;;;;;;;;;;;5121222;27;20351;-83
2022/07/22 05:14:40;;;;;;;;;;;;;;;;;;5141849;27;19930;-82
2022/07/22 05:17:14;;;;;;;;;;;;;;;;;;5145992;27;19922;-84
2022/07/22 05:19:39;;;;;;;;;;;;;;;;;;5139609;27;19915;-84
2022/07/22 05:22:08;;;;;;;;;;;;;;;;;;5137542;27;19923;-83
2022/07/22 05:24:33;;;;;;;;;;;;;;;;;;5135488;27;19927;-82
2022/07/22 05:26:59;;;;;;;;;;;;;;;;;;5137093;27;20324;-82
2022/07/22 05:29:25;;;;;;;;;;;;;;;;;;5137283;27;19915;-81
2022/07/22 05:31:50;;;;;;;;;;;;;;;;;;5136421;27;19915;-82
2022/07/22 05:34:15;;;;;;;;;;;;;;;;;;5137359;27;19918;-82
2022/07/22 05:36:41;;;;;;;;;;;;;;;;;;5141926;27;19920;-82
2022/07/22 05:39:06;;;;;;;;;;;;;;;;;;5139652;27;19916;-81
2022/07/22 05:41:31;;;;;;;;;;;;;;;;;;5138222;27;20002;-82
2022/07/22 05:43:56;;;;;;;;;;;;;;;;;;5137362;27;19915;-81
2022/07/22 05:46:22;;;;;;;;;;;;;;;;;;5137530;27;19935;-83
2022/07/22 05:48:47;;;;;;;;;;;;;;;;;;5136752;27;19915;-81
2022/07/22 05:51:15;;;;;;;;;;;;;;;;;;5138632;27;19922;-79
2022/07/22 05:53:43;;;;;;;;;;;;;;;;;;5141563;27;19934;-82
2022/07/22 05:56:10;;;;;;;;;;;;;;;;;;5144175;27;19922;-81
2022/07/22 05:58:36;;;;;;;;;;;;;;;;;;5148580;27;20356;-83
2022/07/22 06:01:01;;;;;;;;;;;;;;;;;;5139021;27;19915;-81
2022/07/22 06:03:27;;;;;;;;;;;;;;;;;;5136110;27;19915;-81
2022/07/22 06:05:52;;;;;;;;;;;;;;;;;;5141250;27;19966;-82
2022/07/22 06:08:17;;;;;;;;;;;;;;;;;;5138146;27;19916;-80
2022/07/22 06:10:43;;;;;;;;;;;;;;;;;;5136192;27;19920;-82
2022/07/22 06:13:10;;;;;;;;;;;;;;;;;;5138853;27;19919;-83
2022/07/22 06:15:35;;;;;;;;;;;;;;;;;;5138653;27;19923;-81
2022/07/22 06:18:01;;;;;;;;;;;;;;;;;;5141912;27;19916;-81
2022/07/22 06:20:26;;;;;;;;;;;;;;;;;;5141952;27;20421;-82
2022/07/22 06:22:54;;;;;;;;;;;;;;;;;;5137306;27;20051;-82
2022/07/22 06:25:19;;;;;;;;;;;;;;;;;;5136616;27;19922;-80
2022/07/22 06:27:44;;;;;;;;;;;;;;;;;;5136620;27;19916;-80
2022/07/22 06:30:10;;;;;;;;;;;;;;;;;;5135516;27;19915;-81
2022/07/22 06:32:35;;;;;;;;;;;;;;;;;;5136984;27;19999;-82
2022/07/22 06:35:01;;;;;;;;;;;;;;;;;;5138193;27;20374;-83
2022/07/22 06:37:26;;;;;;;;;;;;;;;;;;5135721;27;19919;-83
2022/07/22 06:39:52;;;;;;;;;;;;;;;;;;5149352;27;19903;-81
2022/07/22 06:42:17;;;;;;;;;;;;;;;;;;5136895;27;19915;-83
2022/07/22 06:44:42;;;;;;;;;;;;;;;;;;5135704;27;19919;-82
2022/07/22 06:47:08;;;;;;;;;;;;;;;;;;5136830;27;20272;-83
2022/07/22 06:49:34;;;;;;;;;;;;;;;;;;5135175;27;19915;-82
2022/07/22 06:52:01;;;;;;;;;;;;;;;;;;5136103;27;19919;-83
2022/07/22 06:54:26;;;;;;;;;;;;;;;;;;5135885;27;20256;-83
2022/07/22 06:56:51;;;;;;;;;;;;;;;;;;5136714;27;19915;-83
2022/07/22 06:59:17;;;;;;;;;;;;;;;;;;5138769;27;19982;-81
2022/07/22 07:01:42;;;;;;;;;;;;;;;;;;5119566;27;19979;-82
2022/07/22 07:04:09;;;;;;;;;;;;;;;;;;5136527;27;19915;-81
2022/07/22 07:06:34;;;;;;;;;;;;;;;;;;5135106;27;19947;-82
2022/07/22 07:09:00;;;;;;;;;;;;;;;;;;5134424;27;19916;-82
2022/07/22 07:11:25;;;;;;;;;;;;;;;;;;5136572;27;19919;-81
2022/07/22 07:13:51;;;;;;;;;;;;;;;;;;5136549;27;19915;-82
2022/07/22 07:16:16;;;;;;;;;;;;;;;;;;5135826;27;19916;-81
2022/07/22 07:18:41;;;;;;;;;;;;;;;;;;5142805;27;19988;-82
2022/07/22 07:21:07;;;;;;;;;;;;;;;;;;5136041;27;20005;-80
2022/07/22 07:23:32;;;;;;;;;;;;;;;;;;5136098;27;20010;-83
2022/07/22 07:25:57;;;;;;;;;;;;;;;;;;5116220;27;19915;-82
2022/07/22 07:28:23;;;;;;;;;;;;;;;;;;5133201;27;20341;-80
2022/07/22 07:30:48;;;;;;;;;;;;;;;;;;5134674;27;20349;-80
2022/07/22 07:33:13;;;;;;;;;;;;;;;;;;5133043;27;19915;-79
2022/07/22 07:35:39;;;;;;;;;;;;;;;;;;5134153;27;19915;-78
2022/07/22 07:38:04;;;;;;;;;;;;;;;;;;5136031;27;19978;-80
2022/07/22 07:40:29;;;;;;;;;;;;;;;;;;5138383;27;19919;-81
2022/07/22 07:42:55;;;;;;;;;;;;;;;;;;5134638;27;20337;-83
2022/07/22 07:45:20;;;;;;;;;;;;;;;;;;5117187;27;19920;-82
2022/07/22 07:47:45;;;;;;;;;;;;;;;;;;5135933;27;19915;-80
2022/07/22 07:50:11;;;;;;;;;;;;;;;;;;5139503;27;19965;-81
2022/07/22 07:52:38;;;;;;;;;;;;;;;;;;5140458;27;20329;-81
2022/07/22 07:55:03;;;;;;;;;;;;;;;;;;5140534;27;19926;-82
2022/07/22 07:57:28;;;;;;;;;;;;;;;;;;5141989;27;20328;-81
2022/07/22 07:59:54;;;;;;;;;;;;;;;;;;5147458;27;19915;-82
2022/07/22 08:02:19;;;;;;;;;;;;;;;;;;5139731;27;20012;-81
2022/07/22 08:04:44;;;;;;;;;;;;;;;;;;5139860;27;19915;-81
2022/07/22 08:07:10;;;;;;;;;;;;;;;;;;5139417;27;20351;-81
2022/07/22 08:09:35;;;;;;;;;;;;;;;;;;5138785;27;19915;-81
2022/07/22 08:12:00;;;;;;;;;;;;;;;;;;5139555;27;19962;-82
2022/07/22 08:14:26;;;;;;;;;;;;;;;;;;5138138;27;19962;-82
2022/07/22 08:16:51;;;;;;;;;;;;;;;;;;5139667;27;20014;-82
2022/07/22 08:19:16;;;;;;;;;;;;;;;;;;5139676;27;19915;-81
2022/07/22 08:21:42;;;;;;;;;;;;;;;;;;5145287;27;20397;-81
2022/07/22 08:24:08;;;;;;;;;;;;;;;;;;5138726;27;19948;-83
2022/07/22 08:26:34;;;;;;;;;;;;;;;;;;5138449;27;19915;-81
2022/07/22 08:28:59;;;;;;;;;;;;;;;;;;5137503;27;19915;-81
2022/07/22 08:31:26;;;;;;;;;;;;;;;;;;5138729;27;20229;-81
2022/07/22 08:33:52;;;;;;;;;;;;;;;;;;5138699;27;19922;-80
2022/07/22 08:36:17;;;;;;;;;;;;;;;;;;5137677;27;20325;-79
2022/07/22 08:38:42;;;;;;;;;;;;;;;;;;5138318;27;19922;-79
2022/07/22 08:41:08;;;;;;;;;;;;;;;;;;5146702;27;20006;-80
2022/07/22 08:43:34;;;;;;;;;;;;;;;;;;5140801;27;19921;-80
2022/07/22 08:45:59;;;;;;;;;;;;;;;;;;5138230;27;20336;-80
2022/07/22 08:48:25;;;;;;;;;;;;;;;;;;5138515;27;19915;-81
2022/07/22 08:50:50;;;;;;;;;;;;;;;;;;5136969;27;19915;-81
2022/07/22 08:53:15;;;;;;;;;;;;;;;;;;5136530;27;20375;-79
2022/07/22 08:55:44;;;;;;;;;;;;;;;;;;5138055;27;19998;-80
2022/07/22 08:58:09;;;;;;;;;;;;;;;;;;5119274;27;19998;-81
2022/07/22 09:00:35;;;;;;;;;;;;;;;;;;5139921;27;20413;-81
2022/07/22 09:03:00;;;;;;;;;;;;;;;;;;5144236;27;19915;-79
2022/07/22 09:05:26;;;;;;;;;;;;;;;;;;5136014;27;19915;-81
2022/07/22 09:07:52;;;;;;;;;;;;;;;;;;5136222;27;19964;-80
2022/07/22 09:10:19;;;;;;;;;;;;;;;;;;5135768;27;19916;-80
2022/07/22 09:12:55;;;;;;;;;;;;;;;;;;5137367;27;20317;-81
2022/07/22 09:15:35;;;;;;;;;;;;;;;;;;5137511;27;19915;-82
2022/07/22 09:18:01;;;;;;;;;;;;;;;;;;5137798;27;19915;-82
2022/07/22 09:20:26;;;;;;;;;;;;;;;;;;5140554;27;19948;-82
2022/07/22 09:22:51;;;;;;;;;;;;;;;;;;5143411;27;19915;-79
2022/07/22 09:25:18;;;;;;;;;;;;;;;;;;5140607;27;19923;-81
2022/07/22 09:27:44;;;;;;;;;;;;;;;;;;5137204;27;19916;-80
2022/07/22 09:30:19;;;;;;;;;;;;;;;;;;5137605;27;19916;-81
2022/07/22 09:32:45;;;;;;;;;;;;;;;;;;5139622;27;19937;-80
2022/07/22 09:35:10;;;;;;;;;;;;;;;;;;5139938;27;20345;-81
2022/07/22 09:37:37;;;;;;;;;;;;;;;;;;5140989;27;19980;-82
2022/07/22 09:40:31;;;;;;;;;;;;;;;;;;5137329;27;19947;-80
2022/07/22 09:43:00;;;;;;;;;;;;;;;;;;5125210;27;20425;-84
2022/07/22 09:45:26;;;;;;;;;;;;;;;;;;5145650;27;19970;-80
2022/07/22 09:47:53;;;;;;;;;;;;;;;;;;5137939;27;19948;-82
2022/07/22 09:50:25;;;;;;;;;;;;;;;;;;5138160;27;19915;-81
2022/07/22 09:52:52;;;;;;;;;;;;;;;;;;5136682;27;19924;-81
2022/07/22 09:55:18;;;;;;;;;;;;;;;;;;5137127;27;20276;-81
2022/07/22 09:57:44;;;;;;;;;;;;;;;;;;5136711;27;19916;-81
2022/07/22 10:00:10;;;;;;;;;;;;;;;;;;5135248;27;19922;-81
2022/07/22 10:02:37;;;;;;;;;;;;;;;;;;5135844;27;19916;-81
2022/07/22 10:05:02;;;;;;;;;;;;;;;;;;5140145;27;20272;-81
2022/07/22 10:07:27;;;;;;;;;;;;;;;;;;5136849;27;19916;-82
2022/07/22 10:09:53;;;;;;;;;;;;;;;;;;5136671;27;20356;-81
2022/07/22 10:12:18;;;;;;;;;;;;;;;;;;5135554;27;20337;-80
2022/07/22 10:14:45;;;;;;;;;;;;;;;;;;5135106;27;19973;-83
2022/07/22 10:17:12;;;;;;;;;;;;;;;;;;5134645;27;19915;-82
2022/07/22 10:19:37;;;;;;;;;;;;;;;;;;5134846;27;20305;-81
2022/07/22 10:22:02;;;;;;;;;;;;;;;;;;5136783;27;19915;-82
2022/07/22 10:24:28;;;;;;;;;;;;;;;;;;5136446;27;20265;-81
2022/07/22 10:26:57;;;;;;;;;;;;;;;;;;5139963;27;19915;-81
2022/07/22 10:29:32;;;;;;;;;;;;;;;;;;5135925;27;20301;-81
2022/07/22 10:32:15;;;;;;;;;;;;;;;;;;5138562;27;20341;-82
2022/07/22 10:34:41;;;;;;;;;;;;;;;;;;5135740;27;20011;-82
2022/07/22 10:37:25;;;;;;;;;;;;;;;;;;5136042;27;19943;-80
2022/07/22 10:40:09;;;;;;;;;;;;;;;;;;5137166;27;19916;-81
2022/07/22 10:43:10;;;;;;;;;;;;;;;;;;5137391;27;19916;-82
2022/07/22 10:45:37;;;;;;;;;;;;;;;;;;5055117;28;19956;-85
2022/07/22 10:48:09;;;;;;;;;;;;;;;;;;5129626;27;19922;-80
2022/07/22 10:50:40;;;;;;;;;;;;;;;;;;5138565;27;19923;-82
2022/07/22 10:53:12;;;;;;;;;;;;;;;;;;5141875;27;19972;-81
2022/07/22 10:55:38;;;;;;;;;;;;;;;;;;5098138;28;19979;-82
2022/07/22 10:58:22;;;;;;;;;;;;;;;;;;5097546;28;19962;-81
2022/07/22 11:00:48;;;;;;;;;;;;;;;;;;5095961;28;20003;-84
2022/07/22 11:03:23;;;;;;;;;;;;;;;;;;5095612;28;20392;-82
2022/07/22 11:05:48;;;;;;;;;;;;;;;;;;5096012;28;19973;-84
2022/07/22 11:08:13;;;;;;;;;;;;;;;;;;5101735;28;19920;-84
2022/07/22 11:10:46;;;;;;;;;;;;;;;;;;5105393;28;19927;-82
2022/07/22 11:13:11;;;;;;;;;;;;;;;;;;5095588;28;19916;-82
2022/07/22 11:15:36;;;;;;;;;;;;;;;;;;5096597;28;20000;-82
2022/07/22 11:18:01;;;;;;;;;;;;;;;;;;5097729;28;19917;-82
2022/07/22 11:20:27;;;;;;;;;;;;;;;;;;5098713;28;20257;-81
2022/07/22 11:22:52;;;;;;;;;;;;;;;;;;5100511;28;20258;-82
2022/07/22 11:25:17;;;;;;;;;;;;;;;;;;5101419;28;19923;-83
2022/07/22 11:27:52;;;;;;;;;;;;;;;;;;5099697;28;19927;-83
2022/07/22 11:30:17;;;;;;;;;;;;;;;;;;5109993;28;19916;-84
2022/07/22 11:32:43;;;;;;;;;;;;;;;;;;5101402;28;19964;-81
2022/07/22 11:35:11;;;;;;;;;;;;;;;;;;5102105;28;19916;-80
2022/07/22 11:37:36;;;;;;;;;;;;;;;;;;5099151;28;19923;-82
2022/07/22 11:40:03;;;;;;;;;;;;;;;;;;5097155;28;19955;-80
2022/07/22 11:42:28;;;;;;;;;;;;;;;;;;5098820;28;19956;-83
2022/07/22 11:44:54;;;;;;;;;;;;;;;;;;5098840;28;20261;-84
2022/07/22 11:47:19;;;;;;;;;;;;;;;;;;5098521;28;19916;-84
2022/07/22 11:49:45;;;;;;;;;;;;;;;;;;5099404;28;20257;-81
2022/07/22 11:52:13;;;;;;;;;;;;;;;;;;5110655;28;19975;-85
2022/07/22 11:54:39;;;;;;;;;;;;;;;;;;5126663;27;19919;-83
2022/07/22 11:57:04;;;;;;;;;;;;;;;;;;5140755;27;19915;-85
2022/07/22 11:59:30;;;;;;;;;;;;;;;;;;5138363;27;19923;-85
2022/07/22 12:01:55;;;;;;;;;;;;;;;;;;5139509;27;20825;-80
2022/07/22 12:04:24;;;;;;;;;;;;;;;;;;5140215;27;20264;-81
2022/07/22 12:06:50;;;;;;;;;;;;;;;;;;5141213;27;20003;-81
2022/07/22 12:09:16;;;;;;;;;;;;;;;;;;5139920;27;19915;-80
2022/07/22 12:11:45;;;;;;;;;;;;;;;;;;5143447;27;19912;-83
2022/07/22 12:14:21;;;;;;;;;;;;;;;;;;5143393;27;19964;-83
2022/07/22 12:17:05;;;;;;;;;;;;;;;;;;5137790;27;19915;-83
2022/07/22 12:19:31;;;;;;;;;;;;;;;;;;5139843;27;19939;-82
2022/07/22 12:21:57;;;;;;;;;;;;;;;;;;5140650;27;20293;-84
2022/07/22 12:24:29;;;;;;;;;;;;;;;;;;5143043;27;20390;-84
2022/07/22 12:26:55;;;;;;;;;;;;;;;;;;5138930;27;19980;-84
2022/07/22 12:29:21;;;;;;;;;;;;;;;;;;5137959;27;19919;-83
2022/07/22 12:31:53;;;;;;;;;;;;;;;;;;5139778;27;19921;-83
2022/07/22 12:34:37;;;;;;;;;;;;;;;;;;5144814;27;19922;-84
2022/07/22 12:37:18;;;;;;;;;;;;;;;;;;5140487;27;19922;-83
2022/07/22 12:39:59;;;;;;;;;;;;;;;;;;5138777;27;19916;-84
2022/07/22 12:42:25;;;;;;;;;;;;;;;;;;5144751;27;19916;-83
2022/07/22 12:44:59;;;;;;;;;;;;;;;;;;5141821;27;19923;-84
2022/07/22 12:47:44;;;;;;;;;;;;;;;;;;5137795;27;19916;-83
2022/07/22 12:50:23;;;;;;;;;;;;;;;;;;5138915;27;20331;-84
2022/07/22 12:52:49;;;;;;;;;;;;;;;;;;5143041;27;19998;-83
2022/07/22 12:55:14;;;;;;;;;;;;;;;;;;5143079;27;20393;-85
2022/07/22 12:57:39;;;;;;;;;;;;;;;;;;5145191;27;19923;-83
2022/07/22 13:00:08;;;;;;;;;;;;;;;;;;5151137;27;19915;-83
2022/07/22 13:02:34;;;;;;;;;;;;;;;;;;5136620;27;19939;-84
2022/07/22 13:04:59;;;;;;;;;;;;;;;;;;5137108;27;20348;-85
2022/07/22 13:07:24;;;;;;;;;;;;;;;;;;5139142;27;20007;-85
2022/07/22 13:09:50;;;;;;;;;;;;;;;;;;5141733;27;20120;-85
2022/07/22 13:12:15;;;;;;;;;;;;;;;;;;5137118;27;19916;-85
2022/07/22 13:14:41;;;;;;;;;;;;;;;;;;5145947;27;19914;-83
2022/07/22 13:17:06;;;;;;;;;;;;;;;;;;5141389;27;20294;-84
2022/07/22 13:19:31;;;;;;;;;;;;;;;;;;5146419;27;19979;-83
2022/07/22 13:21:57;;;;;;;;;;;;;;;;;;5143006;27;19916;-82
2022/07/22 13:24:22;;;;;;;;;;;;;;;;;;5139353;27;19922;-84
2022/07/22 13:26:47;;;;;;;;;;;;;;;;;;5140155;27;19937;-81
2022/07/22 13:29:12;;;;;;;;;;;;;;;;;;5139098;27;19915;-83
2022/07/22 13:31:38;;;;;;;;;;;;;;;;;;5138274;27;19965;-82
2022/07/22 13:34:03;;;;;;;;;;;;;;;;;;5136687;27;20356;-82
2022/07/22 13:36:32;;;;;;;;;;;;;;;;;;5138867;27;19972;-81
2022/07/22 13:38:57;;;;;;;;;;;;;;;;;;5135605;27;19922;-81
2022/07/22 13:41:22;;;;;;;;;;;;;;;;;;5136466;27;19915;-82
2022/07/22 13:43:48;;;;;;;;;;;;;;;;;;5136863;27;20404;-82
2022/07/22 13:46:14;;;;;;;;;;;;;;;;;;5135636;27;19966;-82
2022/07/22 13:48:39;;;;;;;;;;;;;;;;;;5135538;27;19919;-83
2022/07/22 13:51:05;;;;;;;;;;;;;;;;;;5135668;27;19976;-82
2022/07/22 13:53:30;;;;;;;;;;;;;;;;;;5117888;27;19920;-83
2022/07/22 13:55:55;;;;;;;;;;;;;;;;;;5138612;27;20450;-79
2022/07/22 13:58:21;;;;;;;;;;;;;;;;;;5140235;27;19915;-80
2022/07/22 14:00:47;;;;;;;;;;;;;;;;;;5136865;27;19965;-83
2022/07/22 14:03:12;;;;;;;;;;;;;;;;;;5136717;27;19953;-83
2022/07/22 14:05:37;;;;;;;;;;;;;;;;;;5136752;27;19959;-82
2022/07/22 14:08:03;;;;;;;;;;;;;;;;;;5136332;27;19973;-81
2022/07/22 14:10:29;;;;;;;;;;;;;;;;;;5134770;27;19915;-79
2022/07/22 14:12:54;;;;;;;;;;;;;;;;;;5136407;27;19915;-81
2022/07/22 14:15:20;;;;;;;;;;;;;;;;;;5135137;27;19915;-82
2022/07/22 14:17:45;;;;;;;;;;;;;;;;;;5141695;27;19916;-82
2022/07/22 14:20:11;;;;;;;;;;;;;;;;;;5134635;27;19972;-80
2022/07/22 14:22:36;;;;;;;;;;;;;;;;;;5136371;27;19964;-81
2022/07/22 14:25:01;;;;;;;;;;;;;;;;;;5135953;27;19916;-81
2022/07/22 14:27:27;;;;;;;;;;;;;;;;;;5135943;27;20328;-81
2022/07/22 14:29:52;;;;;;;;;;;;;;;;;;5136287;27;19915;-80
2022/07/22 14:32:18;;;;;;;;;;;;;;;;;;5135956;27;20271;-79
2022/07/22 14:34:43;;;;;;;;;;;;;;;;;;5134817;27;19915;-80
2022/07/22 14:37:09;;;;;;;;;;;;;;;;;;5137952;27;19915;-82
2022/07/22 14:39:34;;;;;;;;;;;;;;;;;;5142299;27;19920;-82
2022/07/22 14:42:00;;;;;;;;;;;;;;;;;;5135813;27;19923;-82
2022/07/22 14:44:25;;;;;;;;;;;;;;;;;;5135783;27;19915;-80
2022/07/22 14:46:51;;;;;;;;;;;;;;;;;;5136063;27;20251;-79
2022/07/22 14:49:16;;;;;;;;;;;;;;;;;;5135724;27;19915;-80
2022/07/22 14:51:42;;;;;;;;;;;;;;;;;;5135711;27;19915;-81
2022/07/22 14:54:08;;;;;;;;;;;;;;;;;;5135416;27;19924;-81
2022/07/22 14:56:35;;;;;;;;;;;;;;;;;;5135323;27;20294;-80
2022/07/22 14:59:02;;;;;;;;;;;;;;;;;;5141209;27;19912;-82
2022/07/22 15:01:27;;;;;;;;;;;;;;;;;;5136671;27;19915;-82
2022/07/22 15:03:52;;;;;;;;;;;;;;;;;;5135838;27;19911;-81
2022/07/22 15:06:18;;;;;;;;;;;;;;;;;;5134001;27;19919;-80
2022/07/22 15:08:43;;;;;;;;;;;;;;;;;;5135496;27;19915;-80
2022/07/22 15:11:09;;;;;;;;;;;;;;;;;;5135523;27;19915;-82
2022/07/22 15:13:34;;;;;;;;;;;;;;;;;;5135603;27;19922;-81
2022/07/22 15:15:59;;;;;;;;;;;;;;;;;;5135504;27;19922;-81
2022/07/22 15:18:25;;;;;;;;;;;;;;;;;;5135267;27;20234;-82
2022/07/22 15:20:53;;;;;;;;;;;;;;;;;;5137007;27;19926;-80
2022/07/22 15:23:19;;;;;;;;;;;;;;;;;;5134220;27;20317;-81
2022/07/22 15:25:44;;;;;;;;;;;;;;;;;;5135080;27;19922;-80
2022/07/22 15:28:10;;;;;;;;;;;;;;;;;;5134281;28;19915;-83
2022/07/22 15:30:35;;;;;;;;;;;;;;;;;;5135303;27;19979;-81
2022/07/22 15:33:00;;;;;;;;;;;;;;;;;;5135265;27;19916;-80
2022/07/22 15:35:25;;;;;;;;;;;;;;;;;;5133669;28;19957;-82
2022/07/22 15:37:51;;;;;;;;;;;;;;;;;;5135388;27;19945;-82
2022/07/22 15:40:17;;;;;;;;;;;;;;;;;;5139439;27;19922;-83
2022/07/22 15:42:42;;;;;;;;;;;;;;;;;;5135360;27;19915;-82
2022/07/22 15:45:08;;;;;;;;;;;;;;;;;;5135164;27;19915;-81
2022/07/22 15:47:33;;;;;;;;;;;;;;;;;;5135182;27;19922;-81
2022/07/22 15:49:58;;;;;;;;;;;;;;;;;;5133580;28;19923;-81
2022/07/22 15:52:24;;;;;;;;;;;;;;;;;;5135193;27;19922;-82
2022/07/22 15:54:50;;;;;;;;;;;;;;;;;;5134959;27;19919;-81
2022/07/22 15:59:59;;;;;;;;;;;;;;;;;;5134866;27;20367;-82
2022/07/22 16:02:25;;;;;;;;;;;;;;;;;;5135230;27;19915;-82
2022/07/22 16:04:50;;;;;;;;;;;;;;;;;;5133429;27;19965;-81
2022/07/22 16:07:15;;;;;;;;;;;;;;;;;;5135074;27;19979;-81
2022/07/22 16:09:41;;;;;;;;;;;;;;;;;;5137090;27;19922;-83
2022/07/22 16:12:07;;;;;;;;;;;;;;;;;;5138754;27;19922;-82
2022/07/22 16:14:32;;;;;;;;;;;;;;;;;;5138748;27;19960;-81
2022/07/22 16:16:57;;;;;;;;;;;;;;;;;;5138645;27;19916;-81
2022/07/22 16:19:23;;;;;;;;;;;;;;;;;;5138421;27;19951;-81
2022/07/22 16:21:48;;;;;;;;;;;;;;;;;;5138973;27;20289;-80
2022/07/22 16:24:14;;;;;;;;;;;;;;;;;;5140221;27;19915;-82
2022/07/22 16:26:40;;;;;;;;;;;;;;;;;;5138328;27;19915;-82
2022/07/22 16:29:05;;;;;;;;;;;;;;;;;;5137063;27;19922;-82
2022/07/22 16:31:31;;;;;;;;;;;;;;;;;;5138313;27;19916;-82
2022/07/22 16:33:56;;;;;;;;;;;;;;;;;;5138199;27;19912;-81
2022/07/22 16:36:22;;;;;;;;;;;;;;;;;;5138558;27;19922;-80
2022/07/22 16:38:47;;;;;;;;;;;;;;;;;;5137083;27;20240;-81
2022/07/22 16:41:12;;;;;;;;;;;;;;;;;;5136887;27;19915;-82
2022/07/22 16:43:38;;;;;;;;;;;;;;;;;;5136694;27;19959;-82